Time;durP1;ratioP1;P1;durP2;ratioP2;P2;SDS_P1;SDS_P2;PMS_P1;PMS_P2;Temp;Humidity;BMP_temperature;BMP_pressure;BME280_temperature;BME280_humidity;BME280_pressure;Samples;Min_cycle;Max_cycle;Signal;HPM_P1;HPM_P2
2021/05/17 00:01:07;;;;;;;6.22;3.75;;;;;;;12.21;61.28;98309.56;5054137;28;20049;-82
2021/05/17 00:03:36;;;;;;;8.95;4.25;;;;;;;12.17;62.00;98309.00;5054995;28;20089;-81
2021/05/17 00:06:03;;;;;;;7.50;4.43;;;;;;;12.16;61.61;98315.25;5054969;28;20057;-82
2021/05/17 00:08:30;;;;;;;5.85;4.10;;;;;;;12.13;61.54;98310.25;5054202;28;20109;-82
2021/05/17 00:10:57;;;;;;;5.97;4.35;;;;;;;12.11;62.15;98318.28;5052588;28;20053;-82
2021/05/17 00:13:24;;;;;;;5.78;4.47;;;;;;;12.08;62.09;98307.19;5035694;28;20254;-82
2021/05/17 00:15:51;;;;;;;9.50;4.85;;;;;;;12.05;62.13;98308.28;5033276;28;20491;-82
2021/05/17 00:18:18;;;;;;;6.50;5.07;;;;;;;12.02;62.48;98300.59;5034659;28;20056;-82
2021/05/17 00:20:44;;;;;;;9.43;5.55;;;;;;;12.01;62.51;98304.22;5033143;28;20410;-82
2021/05/17 00:23:11;;;;;;;10.85;5.38;;;;;;;11.99;62.62;98312.25;5034314;28;20053;-82
2021/05/17 00:25:38;;;;;;;7.35;5.45;;;;;;;12.00;63.01;98307.78;5051548;28;20049;-81
2021/05/17 00:28:05;;;;;;;13.48;6.85;;;;;;;12.00;62.93;98315.72;5052920;28;20057;-82
2021/05/17 00:30:32;;;;;;;11.77;6.72;;;;;;;11.99;63.15;98308.78;5053021;28;20052;-82
2021/05/17 00:33:01;;;;;;;12.85;6.82;;;;;;;11.98;63.30;98301.84;5043746;28;20483;-81
2021/05/17 00:35:28;;;;;;;8.75;6.38;;;;;;;12.00;63.29;98307.78;5032761;28;20490;-82
2021/05/17 00:37:54;;;;;;;14.20;7.13;;;;;;;12.01;63.46;98301.56;5034614;28;20426;-82
2021/05/17 00:40:22;;;;;;;8.52;6.68;;;;;;;12.01;63.53;98306.84;5053658;28;20049;-82
2021/05/17 00:42:50;;;;;;;13.00;7.50;;;;;;;12.01;63.41;98298.94;5052782;28;20555;-81
2021/05/17 00:45:18;;;;;;;8.05;6.88;;;;;;;12.00;63.50;98299.88;5053711;28;20053;-82
2021/05/17 00:47:48;;;;;;;9.30;6.43;;;;;;;11.98;63.67;98297.41;5052604;28;20049;-82
2021/05/17 00:50:19;;;;;;;10.55;6.35;;;;;;;11.97;64.06;98297.53;5052523;28;20449;-82
2021/05/17 00:52:46;;;;;;;7.00;5.45;;;;;;;11.98;63.41;98293.91;5050667;28;20143;-82
2021/05/17 00:55:13;;;;;;;7.75;5.93;;;;;;;11.98;63.42;98291.28;5053470;28;20065;-82
2021/05/17 00:57:40;;;;;;;13.73;6.57;;;;;;;12.00;63.35;98291.97;5052802;28;20068;-82
2021/05/17 01:00:11;;;;;;;7.75;5.97;;;;;;;11.99;63.83;98290.31;5051911;28;20045;-81
2021/05/17 01:02:38;;;;;;;8.18;6.25;;;;;;;11.99;63.11;98283.25;5053934;28;20057;-82
2021/05/17 01:05:06;;;;;;;8.68;5.85;;;;;;;12.00;63.49;98286.69;5053274;28;20071;-82
2021/05/17 01:07:33;;;;;;;12.93;7.13;;;;;;;11.99;63.37;98291.16;5046237;28;20065;-82
2021/05/17 01:09:59;;;;;;;9.65;6.50;;;;;;;11.97;63.17;98286.97;5033439;28;20049;-81
2021/05/17 01:12:26;;;;;;;9.63;6.65;;;;;;;11.96;63.10;98293.22;5033896;28;20490;-82
2021/05/17 01:14:57;;;;;;;11.02;7.03;;;;;;;11.91;63.74;98288.34;5033268;28;20049;-82
2021/05/17 01:17:25;;;;;;;9.60;6.78;;;;;;;11.89;63.52;98294.72;5032370;28;20282;-82
2021/05/17 01:20:10;;;;;;;9.07;7.00;;;;;;;11.82;64.63;98303.13;5031942;28;20147;-81
2021/05/17 01:22:50;;;;;;;8.63;6.47;;;;;;;11.81;63.79;98300.66;5045681;28;20049;-82
2021/05/17 01:25:19;;;;;;;9.80;6.20;;;;;;;11.77;63.74;98304.53;5053106;28;20048;-82
2021/05/17 01:27:47;;;;;;;7.85;6.20;;;;;;;11.73;63.58;98299.50;5053232;28;20052;-82
2021/05/17 01:30:15;;;;;;;9.05;7.10;;;;;;;11.68;63.80;98293.78;5053471;28;20076;-81
2021/05/17 01:32:43;;;;;;;10.80;7.05;;;;;;;11.66;63.79;98301.00;5051855;28;20103;-82
2021/05/17 01:35:10;;;;;;;8.35;6.82;;;;;;;11.64;64.01;98299.44;5051376;28;20057;-82
2021/05/17 01:37:39;;;;;;;10.07;7.25;;;;;;;11.60;64.20;98307.59;5036117;28;20049;-82
2021/05/17 01:40:07;;;;;;;8.88;7.15;;;;;;;11.58;64.34;98306.91;5031623;28;20399;-82
2021/05/17 01:42:39;;;;;;;10.88;8.13;;;;;;;11.56;64.86;98306.19;5032944;28;20053;-82
2021/05/17 01:45:07;;;;;;;10.75;7.32;;;;;;;11.55;64.50;98293.19;5033273;28;20057;-82
2021/05/17 01:47:40;;;;;;;9.82;7.18;;;;;;;11.53;65.38;98295.94;5033370;28;20075;-81
2021/05/17 01:50:07;;;;;;;;;;;;;;;11.53;65.13;98301.22;5034026;28;20049;-82
2021/05/17 01:52:38;;;;;;;8.77;6.88;;;;;;;11.56;64.70;98305.38;5052805;28;19951;-82
2021/05/17 01:55:10;;;;;;;9.52;6.70;;;;;;;11.54;64.22;98302.03;5051075;28;20471;-81
2021/05/17 01:57:38;;;;;;;10.10;7.43;;;;;;;11.52;64.24;98299.53;5053060;28;20135;-82
2021/05/17 02:00:09;;;;;;;11.65;7.35;;;;;;;11.51;64.72;98302.31;5052989;28;20053;-82
2021/05/17 02:02:36;;;;;;;12.25;8.65;;;;;;;11.51;64.30;98304.94;5052579;28;20053;-82
2021/05/17 02:05:05;;;;;;;11.32;7.78;;;;;;;11.48;64.43;98303.41;5044557;28;20057;-82
2021/05/17 02:07:34;;;;;;;13.50;8.13;;;;;;;11.50;64.44;98301.47;5030346;28;20053;-81
2021/05/17 02:10:04;;;;;;;10.43;7.95;;;;;;;11.49;64.96;98304.22;5031352;28;20053;-82
2021/05/17 02:12:33;;;;;;;11.95;8.30;;;;;;;11.50;65.17;98304.09;5031836;28;20132;-82
2021/05/17 02:15:01;;;;;;;12.38;7.75;;;;;;;11.51;64.79;98305.75;5031109;28;20544;-82
2021/05/17 02:17:27;;;;;;;12.68;8.32;;;;;;;11.52;64.81;98309.25;5032208;28;20064;-82
2021/05/17 02:19:55;;;;;;;12.45;8.90;;;;;;;11.53;65.11;98305.63;5038264;28;20056;-82
2021/05/17 02:22:23;;;;;;;12.27;9.45;;;;;;;11.53;65.32;98313.53;5052036;28;20088;-81
2021/05/17 02:24:49;;;;;;;10.70;8.70;;;;;;;11.53;65.16;98311.75;5050546;28;20055;-81
2021/05/17 02:27:17;;;;;;;15.60;9.05;;;;;;;11.52;65.29;98315.34;5051848;28;20048;-82
2021/05/17 02:29:46;;;;;;;13.05;9.00;;;;;;;11.54;65.15;98315.19;5050771;28;20040;-81
2021/05/17 02:32:24;;;;;;;12.27;9.15;;;;;;;11.51;66.45;98315.47;5050727;28;20056;-82
2021/05/17 02:34:51;;;;;;;11.98;8.73;;;;;;;11.53;65.37;98309.13;5038397;28;20062;-82
2021/05/17 02:37:19;;;;;;;12.82;8.50;;;;;;;11.55;65.23;98315.06;5030644;28;20057;-81
2021/05/17 02:39:46;;;;;;;11.13;8.90;;;;;;;11.55;65.20;98315.06;5032039;28;20057;-82
2021/05/17 02:42:16;;;;;;;12.00;8.95;;;;;;;11.55;66.12;98320.34;5031812;28;20057;-82
2021/05/17 02:44:43;;;;;;;11.68;9.15;;;;;;;11.59;65.65;98316.50;5039345;28;20800;-82
2021/05/17 02:47:10;;;;;;;13.90;9.05;;;;;;;11.61;65.53;98321.63;5052827;28;20049;-81
2021/05/17 02:49:38;;;;;;;10.90;9.00;;;;;;;11.62;65.49;98318.03;5051622;28;20045;-82
2021/05/17 02:52:05;;;;;;;13.35;9.13;;;;;;;11.65;65.34;98314.28;5051871;28;20044;-81
2021/05/17 02:54:37;;;;;;;12.43;9.00;;;;;;;11.67;65.29;98321.09;5052930;28;20048;-82
2021/05/17 02:57:05;;;;;;;11.57;9.15;;;;;;;11.70;65.38;98320.84;5066801;28;20064;-83
2021/05/17 02:59:48;;;;;;;14.93;10.45;;;;;;;11.71;66.40;98321.69;5033257;28;20081;-82
2021/05/17 03:02:20;;;;;;;15.20;9.68;;;;;;;11.73;65.94;98322.38;5031221;28;20049;-82
2021/05/17 03:04:51;;;;;;;14.20;10.15;;;;;;;11.74;65.97;98329.34;5031361;28;20057;-82
2021/05/17 03:07:21;;;;;;;13.10;9.90;;;;;;;11.75;65.28;98315.19;5032601;28;20049;-83
2021/05/17 03:09:49;;;;;;;12.25;9.77;;;;;;;11.75;65.42;98320.47;5032605;28;20057;-82
2021/05/17 03:12:21;;;;;;;14.73;9.88;;;;;;;11.75;65.65;98323.09;5034127;28;20395;-83
2021/05/17 03:14:49;;;;;;;20.63;10.80;;;;;;;11.76;65.64;98322.13;5033660;28;20049;-82
2021/05/17 03:17:19;;;;;;;14.95;11.57;;;;;;;11.76;65.58;98330.03;5083264;28;20049;-82
2021/05/17 03:19:45;;;;;;;14.57;11.05;;;;;;;11.76;65.48;98327.41;5049976;28;20076;-82
2021/05/17 03:22:12;;;;;;;16.40;10.68;;;;;;;11.78;65.57;98332.56;5083262;28;20407;-83
2021/05/17 03:24:41;;;;;;;12.55;10.50;;;;;;;11.76;65.58;98335.31;5050757;28;20053;-82
2021/05/17 03:27:21;;;;;;;18.85;11.35;;;;;;;11.73;66.68;98339.03;5039431;28;20049;-83
2021/05/17 03:29:51;;;;;;;13.52;10.55;;;;;;;11.73;66.11;98333.78;5030356;28;20057;-83
2021/05/17 03:32:18;;;;;;;15.00;10.27;;;;;;;11.75;65.31;98331.00;5032113;28;20060;-83
2021/05/17 03:34:45;;;;;;;14.75;11.10;;;;;;;11.76;65.66;98337.94;5031406;28;20054;-83
2021/05/17 03:37:12;;;;;;;15.35;11.10;;;;;;;11.78;65.63;98336.00;5030157;28;20060;-83
2021/05/17 03:39:38;;;;;;;13.40;11.07;;;;;;;11.76;65.65;98335.31;5031992;28;20056;-83
2021/05/17 03:42:05;;;;;;;16.52;11.98;;;;;;;11.76;65.70;98332.69;5032821;28;20049;-83
2021/05/17 03:44:32;;;;;;;16.55;11.95;;;;;;;11.76;65.69;98332.69;5041591;28;20064;-83
2021/05/17 03:46:58;;;;;;;13.02;11.18;;;;;;;11.73;65.68;98333.78;5051719;28;20444;-83
2021/05/17 03:49:25;;;;;;;14.95;12.43;;;;;;;11.73;65.77;98330.28;5051886;28;20122;-83
2021/05/17 03:51:52;;;;;;;13.88;11.18;;;;;;;11.73;65.79;98332.94;5083604;28;20048;-83
2021/05/17 03:54:19;;;;;;;13.82;10.93;;;;;;;11.73;65.89;98343.47;5083823;28;20052;-82
2021/05/17 03:56:45;;;;;;;14.55;11.38;;;;;;;11.75;65.79;98338.06;5033596;28;20576;-83
2021/05/17 03:59:15;;;;;;;15.88;12.10;;;;;;;11.75;65.95;98338.91;5031766;28;20136;-83
2021/05/17 04:01:42;;;;;;;18.20;12.05;;;;;;;11.77;65.82;98344.88;5030739;28;20084;-83
2021/05/17 04:04:09;;;;;;;14.25;12.00;;;;;;;11.78;65.90;98343.91;5029613;28;20060;-82
2021/05/17 04:14:42;;;;;;;14.40;11.32;;;;;;;11.79;66.02;98347.41;5050627;28;20052;-82
2021/05/17 04:17:09;;;;;;;12.77;10.48;;;;;;;11.79;66.00;98353.50;5051045;28;20056;-82
2021/05/17 04:19:35;;;;;;;15.50;12.18;;;;;;;11.78;65.99;98354.47;5050801;28;20061;-83
2021/05/17 04:22:02;;;;;;;12.85;11.07;;;;;;;11.78;66.10;98345.72;5082870;28;20053;-82
2021/05/17 04:24:29;;;;;;;12.02;9.98;;;;;;;11.80;66.16;98343.78;5049015;28;20052;-82
2021/05/17 04:26:56;;;;;;;13.18;10.23;;;;;;;11.82;66.23;98344.50;5050429;28;20049;-82
2021/05/17 04:29:23;;;;;;;13.27;9.80;;;;;;;11.83;66.09;98344.38;5050611;28;20056;-82
2021/05/17 04:31:49;;;;;;;13.43;10.13;;;;;;;11.86;66.20;98349.38;5049556;28;20064;-82
2021/05/17 04:34:19;;;;;;;12.60;10.27;;;;;;;11.91;66.18;98353.41;5081633;28;20513;-82
2021/05/17 04:36:46;;;;;;;12.23;10.45;;;;;;;11.93;66.02;98351.50;5054028;28;20045;-83
2021/05/17 04:39:12;;;;;;;13.82;10.45;;;;;;;11.95;66.10;98352.19;5042888;28;20057;-82
2021/05/17 04:41:39;;;;;;;12.02;9.68;;;;;;;11.96;66.11;98356.53;5034133;28;20054;-82
2021/05/17 04:44:06;;;;;;;13.82;10.23;;;;;;;11.97;66.07;98355.53;5035822;28;20055;-83
2021/05/17 04:46:33;;;;;;;15.07;10.13;;;;;;;11.98;66.09;98359.84;5036537;28;20049;-83
2021/05/17 04:48:59;;;;;;;14.23;11.05;;;;;;;11.99;66.03;98367.63;5035958;28;20050;-83
2021/05/17 04:51:26;;;;;;;14.48;10.48;;;;;;;11.99;66.10;98370.28;5033939;28;20538;-82
2021/05/17 04:53:53;;;;;;;13.13;10.40;;;;;;;12.00;66.20;98365.81;5036065;28;20050;-82
2021/05/17 04:56:20;;;;;;;11.90;10.10;;;;;;;12.02;66.33;98371.81;5035553;28;20103;-82
2021/05/17 04:58:47;;;;;;;11.05;9.85;;;;;;;12.03;66.51;98370.00;5035623;28;20136;-82
2021/05/17 05:01:14;;;;;;;14.52;11.40;;;;;;;12.05;66.65;98368.94;5032732;28;20045;-82
2021/05/17 05:03:40;;;;;;;14.82;12.88;;;;;;;12.06;66.54;98375.88;5032456;28;20495;-81
2021/05/17 05:06:07;;;;;;;13.20;11.50;;;;;;;12.08;66.41;98375.75;5033657;28;20060;-82
2021/05/17 05:08:33;;;;;;;12.88;10.23;;;;;;;12.09;66.44;98375.63;5048330;28;20049;-82
2021/05/17 05:11:00;;;;;;;15.10;11.27;;;;;;;12.10;66.53;98377.28;5051974;28;20048;-82
2021/05/17 05:13:27;;;;;;;14.60;11.35;;;;;;;12.12;66.54;98375.34;5054167;28;20065;-82
2021/05/17 05:15:54;;;;;;;12.00;10.15;;;;;;;12.14;66.65;98377.03;5052192;28;20056;-82
2021/05/17 05:18:21;;;;;;;13.40;11.50;;;;;;;12.16;66.43;98383.00;5053632;28;20075;-82
2021/05/17 05:20:47;;;;;;;15.30;12.25;;;;;;;12.16;66.50;98383.00;5053871;28;20065;-82
2021/05/17 05:23:16;;;;;;;12.77;10.70;;;;;;;12.16;66.57;98375.09;5086834;28;20060;-83
2021/05/17 05:28:11;;;;;;;14.00;11.80;;;;;;;12.18;66.48;98381.91;5055267;28;20053;-82
2021/05/17 05:33:23;;;;;;;14.52;12.70;;;;;;;12.22;66.75;98374.53;5055379;28;20530;-83
2021/05/17 05:35:50;;;;;;;17.90;13.80;;;;;;;12.24;66.69;98380.53;5053909;28;20049;-83
2021/05/17 05:38:17;;;;;;;17.98;14.35;;;;;;;12.23;66.81;98377.06;5055557;28;20049;-83
2021/05/17 05:40:43;;;;;;;15.07;12.13;;;;;;;12.24;66.95;98380.53;5055153;28;20049;-83
2021/05/17 05:43:10;;;;;;;15.23;12.27;;;;;;;12.25;67.06;98380.41;5054354;28;20055;-82
2021/05/17 05:45:44;;;;;;;15.20;12.30;;;;;;;12.25;67.08;98379.56;5053348;28;20414;-82
2021/05/17 05:48:12;;;;;;;16.42;11.95;;;;;;;12.27;67.17;98382.94;5053204;28;20421;-82
2021/05/17 05:50:45;;;;;;;13.50;11.68;;;;;;;12.29;67.17;98386.25;5077960;28;20051;-82
2021/05/17 05:53:15;;;;;;;14.27;12.15;;;;;;;12.30;67.11;98382.63;5034023;28;20060;-82
2021/05/17 05:55:46;;;;;;;13.73;12.32;;;;;;;12.32;67.72;98386.00;5053391;28;20052;-82
2021/05/17 05:58:14;;;;;;;15.00;13.05;;;;;;;12.36;67.51;98382.13;5053147;28;20053;-82
2021/05/17 06:00:41;;;;;;;18.58;15.52;;;;;;;12.38;67.40;98388.09;5053131;28;20072;-82
2021/05/17 06:03:08;;;;;;;16.95;14.20;;;;;;;12.42;67.08;98388.69;5052945;28;20045;-83
2021/05/17 06:05:35;;;;;;;20.30;16.10;;;;;;;12.43;67.36;98390.34;5075372;28;20072;-83
2021/05/17 06:08:02;;;;;;;17.70;15.27;;;;;;;12.46;67.38;98394.50;5033013;28;20400;-82
2021/05/17 06:10:29;;;;;;;19.48;15.60;;;;;;;12.50;67.71;98393.28;5032009;28;20049;-82
2021/05/17 06:12:58;;;;;;;23.27;18.17;;;;;;;12.55;67.73;98406.91;5032902;28;20049;-82
2021/05/17 06:15:25;;;;;;;20.42;17.02;;;;;;;12.60;67.54;98398.59;5033049;28;20431;-82
2021/05/17 06:17:52;;;;;;;25.80;18.27;;;;;;;12.64;67.56;98400.81;5031554;28;20491;-82
2021/05/17 06:20:19;;;;;;;22.00;17.77;;;;;;;12.70;67.68;98398.59;5043126;28;20056;-83
2021/05/17 06:22:46;;;;;;;19.40;17.05;;;;;;;12.76;67.68;98398.91;5084872;28;20049;-83
2021/05/17 06:25:14;;;;;;;25.70;19.85;;;;;;;12.81;67.54;98406.41;5052626;28;20053;-83
2021/05/17 06:27:42;;;;;;;22.60;18.02;;;;;;;12.87;67.61;98408.50;5053609;28;20060;-83
2021/05/17 06:30:11;;;;;;;23.35;20.20;;;;;;;12.92;67.68;98407.28;5053770;28;20049;-83
2021/05/17 06:32:40;;;;;;;21.42;18.65;;;;;;;12.97;68.18;98411.19;5054107;28;20041;-82
2021/05/17 06:35:08;;;;;;;20.50;18.27;;;;;;;13.05;67.90;98405.22;5051087;28;20053;-82
2021/05/17 06:37:35;;;;;;;20.73;18.10;;;;;;;13.11;67.98;98402.03;5053393;28;20049;-83
2021/05/17 06:40:03;;;;;;;18.90;16.90;;;;;;;13.19;67.93;98405.81;5053998;28;20136;-83
2021/05/17 06:42:30;;;;;;;20.08;17.52;;;;;;;13.24;67.57;98411.50;5054490;28;20490;-83
2021/05/17 06:44:56;;;;;;;19.30;16.48;;;;;;;13.30;67.45;98408.28;5053689;28;20053;-83
2021/05/17 06:47:23;;;;;;;19.77;17.65;;;;;;;13.33;67.37;98408.03;5053862;28;20433;-82
2021/05/17 06:49:50;;;;;;;17.58;15.70;;;;;;;13.36;67.09;98417.47;5036423;28;20061;-82
2021/05/17 06:52:22;;;;;;;17.70;15.80;;;;;;;13.38;67.23;98418.19;5031756;28;20053;-82
2021/05/17 06:54:50;;;;;;;17.65;15.63;;;;;;;13.43;67.11;98419.41;5031693;28;20057;-82
2021/05/17 06:57:25;;;;;;;18.00;15.52;;;;;;;13.48;67.50;98421.69;5034432;28;20480;-82
2021/05/17 06:59:57;;;;;;;17.13;15.23;;;;;;;13.56;67.38;98420.97;5052123;28;20414;-82
2021/05/17 07:02:24;;;;;;;19.25;16.40;;;;;;;13.62;67.31;98416.94;5052134;28;20045;-82
2021/05/17 07:04:51;;;;;;;16.13;14.48;;;;;;;13.68;67.22;98425.16;5051684;28;20422;-82
2021/05/17 07:07:30;;;;;;;17.70;15.05;;;;;;;13.76;67.33;98426.28;5051858;28;20060;-82
2021/05/17 07:12:43;;;;;;;14.23;12.73;;;;;;;13.91;66.93;98424.84;5041621;28;20533;-82
2021/05/17 07:15:10;;;;;;;14.85;12.30;;;;;;;13.97;66.59;98427.91;5031714;28;20049;-82
2021/05/17 07:17:36;;;;;;;14.55;11.75;;;;;;;14.00;66.54;98432.91;5030562;28;20060;-82
2021/05/17 07:20:04;;;;;;;13.13;10.88;;;;;;;14.03;66.18;98432.63;5031961;28;20116;-82
2021/05/17 07:25:23;;;;;;;11.37;10.27;;;;;;;14.05;66.08;98431.50;5030386;28;20053;-82
2021/05/17 07:27:51;;;;;;;11.02;9.63;;;;;;;14.05;65.97;98428.84;5046539;28;20053;-82
2021/05/17 07:30:18;;;;;;;10.93;9.38;;;;;;;14.06;66.03;98427.88;5051298;28;20059;-82
2021/05/17 07:32:44;;;;;;;9.48;8.55;;;;;;;14.06;65.95;98435.00;5050855;28;20057;-82
2021/05/17 07:35:11;;;;;;;12.95;9.32;;;;;;;14.05;66.25;98435.94;5051197;28;20053;-82
2021/05/17 07:37:38;;;;;;;10.68;9.40;;;;;;;14.06;66.28;98427.06;5051306;28;20045;-82
2021/05/17 07:40:05;;;;;;;9.68;8.73;;;;;;;14.09;66.84;98426.75;5047527;28;20052;-82
2021/05/17 07:42:32;;;;;;;11.93;10.73;;;;;;;14.14;66.90;98435.09;5048414;28;20497;-82
2021/05/17 07:44:59;;;;;;;11.05;10.00;;;;;;;14.22;67.15;98428.25;5050868;28;20449;-82
2021/05/17 07:47:25;;;;;;;12.02;9.38;;;;;;;14.29;66.61;98432.00;5052140;28;20057;-82
2021/05/17 07:49:55;;;;;;;13.05;10.38;;;;;;;14.34;66.23;98432.38;5050445;28;20238;-82
2021/05/17 07:52:22;;;;;;;10.57;9.57;;;;;;;14.40;66.29;98436.28;5051257;28;20226;-82
2021/05/17 07:54:49;;;;;;;10.48;9.38;;;;;;;14.43;66.00;98436.81;5046427;28;20049;-82
2021/05/17 07:57:15;;;;;;;10.80;9.70;;;;;;;14.48;66.17;98438.19;5029828;28;20068;-82
2021/05/17 07:59:43;;;;;;;10.98;9.82;;;;;;;14.52;66.35;98432.47;5030076;28;20054;-82
2021/05/17 08:02:09;;;;;;;16.38;10.02;;;;;;;14.58;66.45;98441.66;5031289;28;20045;-82
2021/05/17 08:04:36;;;;;;;16.75;10.88;;;;;;;14.64;66.56;98441.06;5029485;28;20053;-82
2021/05/17 08:07:03;;;;;;;15.32;10.70;;;;;;;14.70;65.94;98435.16;5031075;28;20056;-82
2021/05/17 08:09:31;;;;;;;12.35;10.00;;;;;;;14.77;65.77;98440.72;5032097;28;20075;-82
2021/05/17 08:11:58;;;;;;;10.60;8.35;;;;;;;14.80;65.87;98429.84;5034569;28;20514;-82
2021/05/17 08:14:24;;;;;;;12.15;8.65;;;;;;;14.85;65.33;98432.06;5034541;28;20053;-82
2021/05/17 08:16:51;;;;;;;10.02;8.43;;;;;;;14.85;65.28;98427.59;5035022;28;20057;-82
2021/05/17 08:19:17;;;;;;;11.68;8.65;;;;;;;14.87;65.12;98438.03;5034868;28;20061;-82
2021/05/17 08:21:44;;;;;;;9.63;8.60;;;;;;;14.86;64.90;98439.03;5035059;28;20487;-82
2021/05/17 08:24:11;;;;;;;9.15;8.35;;;;;;;14.84;64.68;98436.50;5041418;28;20072;-82
2021/05/17 08:26:37;;;;;;;8.77;7.75;;;;;;;14.82;64.77;98435.00;5054528;28;20060;-82
2021/05/17 08:29:06;;;;;;;11.23;8.82;;;;;;;14.80;64.89;98445.75;5054257;28;20053;-82
2021/05/17 08:31:33;;;;;;;7.75;6.95;;;;;;;14.77;64.39;98435.44;5054400;28;20049;-82
2021/05/17 08:34:00;;;;;;;7.30;6.60;;;;;;;14.73;64.59;98442.81;5054429;28;20048;-82
2021/05/17 08:36:27;;;;;;;7.82;6.93;;;;;;;14.70;64.78;98451.03;5054675;28;20053;-82
2021/05/17 08:38:53;;;;;;;6.90;6.05;;;;;;;14.67;64.65;98439.94;5043521;28;20060;-82
2021/05/17 08:41:21;;;;;;;7.97;7.13;;;;;;;14.64;65.10;98438.41;5034143;28;20319;-82
2021/05/17 08:43:47;;;;;;;7.75;6.90;;;;;;;14.66;65.24;98438.25;5034049;28;20499;-82
2021/05/17 08:46:15;;;;;;;8.77;7.05;;;;;;;14.69;65.85;98453.88;5034565;28;20049;-82
2021/05/17 08:48:48;;;;;;;7.38;6.63;;;;;;;14.73;66.12;98440.16;5034522;28;20053;-82
2021/05/17 08:51:20;;;;;;;7.57;6.88;;;;;;;14.85;66.48;98440.00;5034061;28;20622;-82
2021/05/17 08:53:49;;;;;;;7.25;6.53;;;;;;;14.98;66.32;98447.59;5035735;28;20057;-83
2021/05/17 08:56:17;;;;;;;6.60;5.72;;;;;;;15.12;66.23;98443.63;5050821;28;20494;-82
2021/05/17 08:58:44;;;;;;;7.38;5.57;;;;;;;15.27;66.14;98440.44;5054949;28;20060;-83
2021/05/17 09:01:11;;;;;;;6.72;5.70;;;;;;;15.41;65.73;98442.59;5039309;28;20050;-82
2021/05/17 09:04:06;;;;;;;8.30;5.03;;;;;;;15.54;64.75;98446.66;5048599;28;20137;-82
2021/05/17 09:06:39;;;;;;;6.80;4.80;;;;;;;15.67;64.65;98433.84;5053414;28;20049;-81
2021/05/17 09:09:26;;;;;;;6.00;4.95;;;;;;;15.82;64.82;98439.44;5053179;28;20059;-82
2021/05/17 09:12:01;;;;;;;5.50;4.38;;;;;;;15.93;64.10;98437.53;5056132;28;20056;-82
2021/05/17 09:14:29;;;;;;;4.35;3.90;;;;;;;16.00;63.72;98431.47;5053357;28;20414;-82
2021/05/17 09:17:02;;;;;;;7.78;4.47;;;;;;;16.04;63.10;98429.34;5054448;28;20509;-82
2021/05/17 09:19:41;;;;;;;5.63;4.70;;;;;;;16.06;62.84;98440.63;5054822;28;20482;-82
2021/05/17 09:22:15;;;;;;;6.75;4.47;;;;;;;16.02;62.58;98433.97;5054364;28;20048;-82
2021/05/17 09:24:52;;;;;;;6.22;4.70;;;;;;;16.03;62.22;98435.63;5043786;28;20049;-83
2021/05/17 09:27:30;;;;;;;7.97;4.50;;;;;;;15.97;62.08;98445.06;5050842;28;20044;-83
2021/05/17 09:32:44;;;;;;;6.82;4.97;;;;;;;15.88;62.48;98444.13;5011262;22;20411;-83
2021/05/17 09:35:36;;;;;;;6.10;5.40;;;;;;;15.87;63.02;98449.59;4994793;28;20145;-82
2021/05/17 09:39:08;;;;;;;7.32;5.18;;;;;;;15.90;63.14;98446.63;4993712;28;20058;-82
2021/05/17 09:42:45;;;;;;;6.73;5.00;;;;;;;15.91;62.53;98448.28;4993614;28;20082;-82
2021/05/17 09:45:39;;;;;;;5.25;4.53;;;;;;;15.91;62.63;98450.94;4995880;28;20491;-83
2021/05/17 09:49:30;;;;;;;7.53;5.13;;;;;;;15.88;62.68;98445.94;5009102;28;20057;-83
2021/05/17 09:52:19;;;;;;;4.90;4.25;;;;;;;15.88;62.26;98445.94;4979306;28;20057;-82
2021/05/17 09:59:41;;;;;;;6.97;4.13;;;;;;;15.80;63.11;98446.72;4971733;28;20077;-82
2021/05/17 10:03:08;;;;;;;5.20;4.65;;;;;;;15.90;63.46;98438.66;5003049;28;20411;-83
2021/05/17 10:05:40;;;;;;;6.32;4.43;;;;;;;16.05;63.67;98436.31;4991667;28;20066;-81
2021/05/17 10:08:44;;;;;;;4.97;4.05;;;;;;;16.18;62.85;98433.22;4994269;28;20112;-82
2021/05/17 10:11:30;;;;;;;5.10;4.00;;;;;;;16.35;63.00;98433.34;4983203;28;20093;-82
2021/05/17 10:14:16;;;;;;;7.72;4.78;;;;;;;16.48;63.20;98440.88;4993801;28;20050;-82
2021/05/17 10:17:43;;;;;;;5.88;4.15;;;;;;;16.57;62.21;98447.91;4933755;29;20059;-83
2021/05/17 10:20:25;;;;;;;6.72;4.40;;;;;;;16.62;60.90;98442.09;4915469;29;20462;-81
2021/05/17 10:23:29;;;;;;;6.22;3.67;;;;;;;16.57;60.92;98447.06;4917795;29;20051;-83
2021/05/17 10:26:19;;;;;;;9.73;4.72;;;;;;;16.52;61.10;98466.13;4917876;29;20083;-84
2021/05/17 10:29:26;;;;;;;4.57;3.60;;;;;;;16.38;60.77;98465.72;4918736;29;20095;-82
2021/05/17 10:32:00;;;;;;;7.60;4.15;;;;;;;16.24;60.75;98464.47;4933064;29;20134;-84
2021/05/17 10:34:27;;;;;;;3.72;2.35;;;;;;;15.99;60.84;98464.31;4933176;29;20395;-84
2021/05/17 10:37:02;;;;;;;3.55;2.50;;;;;;;15.69;62.77;98463.72;4918033;29;20059;-84
2021/05/17 10:39:34;;;;;;;2.60;2.15;;;;;;;15.47;63.53;98464.97;4917577;29;20048;-84
2021/05/17 10:42:24;;;;;;;3.63;3.22;;;;;;;15.26;65.00;98463.47;4978811;28;20057;-83
2021/05/17 10:48:16;;;;;;;3.83;3.03;;;;;;;15.04;66.87;98447.03;4994120;28;20046;-82
2021/05/17 10:50:45;;;;;;;3.13;2.72;;;;;;;15.08;66.76;98453.69;4994249;28;20057;-83
2021/05/17 10:53:44;;;;;;;4.40;3.03;;;;;;;15.11;67.58;98453.38;4993786;28;20050;-83
2021/05/17 10:56:38;;;;;;;4.30;3.22;;;;;;;15.26;68.01;98444.94;4994826;28;20061;-83
2021/05/17 11:02:00;;;;;;;4.45;3.35;;;;;;;15.70;70.70;98427.41;4993478;28;20054;-83
2021/05/17 11:04:30;;;;;;;7.38;4.10;;;;;;;16.06;71.79;98429.16;4993120;28;20105;-83
2021/05/17 11:07:09;;;;;;;6.07;4.00;;;;;;;16.52;71.18;98431.59;4993078;28;20062;-83
2021/05/17 11:09:49;;;;;;;5.50;4.25;;;;;;;16.94;68.78;98433.41;4992183;28;20046;-83
2021/05/17 11:12:28;;;;;;;6.90;3.55;;;;;;;17.26;66.74;98439.00;4992825;28;20057;-82
2021/05/17 11:15:09;;;;;;;6.15;3.75;;;;;;;17.43;65.06;98436.38;4991774;28;20054;-82
2021/05/17 11:17:51;;;;;;;7.47;3.60;;;;;;;17.48;64.85;98442.03;4993110;28;20050;-83
2021/05/17 11:20:49;;;;;;;5.43;4.00;;;;;;;17.44;63.27;98449.50;4991060;28;20050;-82
2021/05/17 11:23:40;;;;;;;12.15;4.53;;;;;;;17.35;63.02;98465.63;4993139;28;20058;-83
2021/05/17 11:26:18;;;;;;;10.00;4.45;;;;;;;17.20;62.85;98468.91;4992662;28;20161;-83
2021/05/17 11:28:48;;;;;;;3.97;2.10;;;;;;;16.98;61.48;98451.69;4992843;28;20047;-85
2021/05/17 11:31:27;;;;;;;2.53;1.90;;;;;;;16.67;60.66;98451.25;4991057;28;20054;-83
2021/05/17 11:33:55;;;;;;;3.75;2.60;;;;;;;16.40;61.78;98455.78;4991606;28;20053;-83
2021/05/17 11:36:26;;;;;;;6.55;3.78;;;;;;;16.14;63.35;98458.44;4991258;28;20061;-83
2021/05/17 11:39:10;;;;;;;6.32;4.53;;;;;;;15.93;64.55;98453.44;4993008;28;20095;-82
2021/05/17 11:41:57;;;;;;;6.70;4.80;;;;;;;15.85;66.58;98455.03;4992480;28;20511;-84
2021/05/17 11:44:31;;;;;;;7.25;5.65;;;;;;;15.97;69.60;98449.53;4992031;28;20051;-84
2021/05/17 11:47:10;;;;;;;10.35;6.90;;;;;;;16.26;74.11;98441.25;4995956;28;20062;-84
2021/05/17 11:49:42;;;;;;;6.88;5.40;;;;;;;16.85;74.31;98437.03;4995656;28;20054;-82
2021/05/17 11:52:17;;;;;;;6.22;4.63;;;;;;;17.42;71.45;98434.72;4996398;28;20065;-82
2021/05/17 11:54:51;;;;;;;6.43;4.30;;;;;;;17.93;67.86;98437.22;4996612;28;20467;-82
2021/05/17 11:57:20;;;;;;;6.97;4.05;;;;;;;18.27;66.70;98446.00;4996633;28;20069;-83
2021/05/17 11:59:49;;;;;;;3.70;3.13;;;;;;;18.53;65.91;98438.75;4997156;28;20092;-82
2021/05/17 12:02:16;;;;;;;9.10;3.80;;;;;;;18.72;65.51;98441.03;4995724;28;20045;-83
2021/05/17 12:04:44;;;;;;;5.90;3.85;;;;;;;18.97;66.06;98434.75;4996278;28;20061;-82
2021/05/17 12:07:16;;;;;;;5.05;4.13;;;;;;;19.32;67.70;98442.44;4996173;28;20054;-82
2021/05/17 12:09:45;;;;;;;;;;;;;;;19.74;67.26;98437.59;4996512;28;20050;-83
2021/05/17 12:12:15;;;;;;;5.75;3.53;;;;;;;20.31;66.49;98438.09;4996254;28;19922;-84
2021/05/17 12:14:44;;;;;;;4.50;3.05;;;;;;;20.68;62.62;98435.50;4995082;28;20063;-83
2021/05/17 12:17:16;;;;;;;4.28;3.17;;;;;;;20.82;59.31;98445.34;4995950;28;20058;-83
2021/05/17 12:20:05;;;;;;;4.13;2.80;;;;;;;20.74;57.59;98449.97;4996082;28;20113;-84